Time;durP1;ratioP1;P1;durP2;ratioP2;P2;SDS_P1;SDS_P2;PMS_P1;PMS_P2;Temp;Humidity;BMP_temperature;BMP_pressure;BME280_temperature;BME280_humidity;BME280_pressure;Samples;Min_cycle;Max_cycle;Signal;HPM_P1;HPM_P2
2023/01/18 00:01:36;;;;;;;10.13;6.00;;;;;;;;;;5057764;28;20033;-70
2023/01/18 00:04:01;;;;;;;11.23;5.75;;;;;;;;;;5050943;28;20599;-70
2023/01/18 00:06:27;;;;;;;10.77;6.17;;;;;;;;;;5040258;28;20025;-70
2023/01/18 00:08:55;;;;;;;11.63;6.20;;;;;;;;;;5058736;28;20315;-71
2023/01/18 00:11:20;;;;;;;10.65;5.80;;;;;;;;;;5057499;28;20296;-69
2023/01/18 00:13:46;;;;;;;11.23;6.40;;;;;;;;;;5062532;28;20462;-69
2023/01/18 00:16:15;;;;;;;11.18;5.90;;;;;;;;;;5044638;28;20413;-72
2023/01/18 00:18:41;;;;;;;11.57;5.80;;;;;;;;;;5059728;28;20120;-68
2023/01/18 00:21:08;;;;;;;11.13;5.85;;;;;;;;;;5065779;28;20513;-69
2023/01/18 00:23:33;;;;;;;12.27;6.25;;;;;;;;;;5055666;28;20029;-69
2023/01/18 00:25:59;;;;;;;10.68;5.95;;;;;;;;;;5048403;28;20112;-70
2023/01/18 00:28:25;;;;;;;12.88;6.05;;;;;;;;;;5060470;28;20032;-69
2023/01/18 00:30:50;;;;;;;13.68;6.60;;;;;;;;;;5061929;28;20024;-70
2023/01/18 00:33:15;;;;;;;11.93;6.33;;;;;;;;;;5062953;28;20066;-69
2023/01/18 00:35:40;;;;;;;11.40;6.13;;;;;;;;;;5039367;28;20040;-70
2023/01/18 00:38:06;;;;;;;9.90;5.60;;;;;;;;;;5060181;28;20288;-72
2023/01/18 00:40:31;;;;;;;10.77;6.07;;;;;;;;;;5054863;28;20032;-71
2023/01/18 00:45:40;;;;;;;9.23;5.45;;;;;;;;;;5060663;28;20285;-69
2023/01/18 00:48:06;;;;;;;9.10;4.75;;;;;;;;;;5062438;28;20025;-70
2023/01/18 00:50:31;;;;;;;8.60;5.03;;;;;;;;;;5070809;28;20501;-70
2023/01/18 00:52:58;;;;;;;8.70;5.00;;;;;;;;;;5049386;28;20284;-70
2023/01/18 00:55:24;;;;;;;9.60;5.40;;;;;;;;;;5062539;28;20143;-70
2023/01/18 00:57:49;;;;;;;11.35;5.72;;;;;;;;;;5041719;28;20506;-70
2023/01/18 01:00:14;;;;;;;9.73;4.85;;;;;;;;;;5066934;28;20068;-70
2023/01/18 01:02:40;;;;;;;8.55;4.95;;;;;;;;;;5045797;28;20120;-69
2023/01/18 01:07:49;;;;;;;10.68;5.53;;;;;;;;;;5061651;28;20440;-69
2023/01/18 01:10:15;;;;;;;9.88;5.25;;;;;;;;;;5062788;28;20112;-70
2023/01/18 01:26:21;;;;;;;12.55;5.10;;;;;;;;;;5060284;28;20452;-73
2023/01/18 01:28:51;;;;;;;9.80;4.93;;;;;;;;;;5044963;28;20107;-72
2023/01/18 01:31:16;;;;;;;;;;;;;;;;;;5058176;28;20384;-72
2023/01/18 01:33:43;;;;;;;8.05;4.20;;;;;;;;;;5068807;28;19912;-72
2023/01/18 01:36:10;;;;;;;8.15;4.78;;;;;;;;;;5064536;28;20487;-74
2023/01/18 01:38:36;;;;;;;10.57;4.85;;;;;;;;;;5061080;28;20036;-72
2023/01/18 01:41:03;;;;;;;8.55;4.45;;;;;;;;;;5049605;28;20032;-72
2023/01/18 01:43:48;;;;;;;6.55;3.65;;;;;;;;;;5062956;28;20100;-72
2023/01/18 01:46:13;;;;;;;10.82;4.57;;;;;;;;;;5061057;28;20025;-72
2023/01/18 01:48:38;;;;;;;7.37;4.30;;;;;;;;;;5058044;28;20070;-70
2023/01/18 01:51:03;;;;;;;6.73;4.13;;;;;;;;;;5052461;28;20036;-70
2023/01/18 01:53:29;;;;;;;7.63;3.97;;;;;;;;;;5055319;28;20303;-69
2023/01/18 01:55:54;;;;;;;7.45;4.57;;;;;;;;;;5065500;28;20476;-70
2023/01/18 01:58:21;;;;;;;6.80;4.17;;;;;;;;;;5056663;28;20382;-68
2023/01/18 02:00:46;;;;;;;9.00;4.25;;;;;;;;;;5064330;28;20028;-69
2023/01/18 02:03:16;;;;;;;7.50;4.27;;;;;;;;;;5059122;28;20031;-69
2023/01/18 02:05:44;;;;;;;9.48;4.38;;;;;;;;;;5064406;28;20274;-69
2023/01/18 02:08:11;;;;;;;5.88;3.75;;;;;;;;;;5055012;28;20115;-70
2023/01/18 02:10:37;;;;;;;7.20;3.70;;;;;;;;;;5059272;28;20029;-70
2023/01/18 02:13:02;;;;;;;8.85;4.07;;;;;;;;;;5060144;28;20104;-70
2023/01/18 02:15:35;;;;;;;7.03;3.92;;;;;;;;;;5061888;28;20032;-71
2023/01/18 02:18:33;;;;;;;12.40;5.88;;;;;;;;;;5057920;28;21462;-69
2023/01/18 02:21:10;;;;;;;8.35;4.63;;;;;;;;;;5024843;28;20546;-70
2023/01/18 02:23:54;;;;;;;7.43;3.85;;;;;;;;;;5061112;28;20091;-70
2023/01/18 02:26:38;;;;;;;7.57;4.28;;;;;;;;;;5040131;28;20028;-70
2023/01/18 02:29:12;;;;;;;11.27;4.82;;;;;;;;;;5057222;28;20466;-70
2023/01/18 02:31:44;;;;;;;9.32;4.88;;;;;;;;;;5051701;28;20123;-70
2023/01/18 02:34:22;;;;;;;7.97;4.00;;;;;;;;;;5058541;28;20041;-70
2023/01/18 02:36:53;;;;;;;6.82;3.63;;;;;;;;;;5050504;28;20033;-70
2023/01/18 02:39:22;;;;;;;6.32;3.63;;;;;;;;;;5062155;28;20040;-69
2023/01/18 02:47:23;;;;;;;5.97;3.63;;;;;;;;;;5056583;28;20040;-69
2023/01/18 02:49:48;;;;;;;5.65;3.47;;;;;;;;;;5045656;28;20047;-69
2023/01/18 02:52:52;;;;;;;5.43;3.43;;;;;;;;;;5062887;28;20032;-69
2023/01/18 02:55:29;;;;;;;6.32;3.65;;;;;;;;;;4999075;28;20038;-70
2023/01/18 02:57:56;;;;;;;5.95;3.38;;;;;;;;;;4983998;28;20042;-71
2023/01/18 03:00:22;;;;;;;8.57;3.90;;;;;;;;;;4997286;28;20116;-69
2023/01/18 03:02:48;;;;;;;5.78;3.40;;;;;;;;;;5004680;28;20038;-69
2023/01/18 03:05:13;;;;;;;5.38;3.42;;;;;;;;;;5001677;28;20220;-69
2023/01/18 03:07:38;;;;;;;5.57;3.40;;;;;;;;;;5004168;28;20026;-70
2023/01/18 03:10:05;;;;;;;5.33;3.30;;;;;;;;;;5005671;28;20329;-69
2023/01/18 03:12:49;;;;;;;6.50;3.20;;;;;;;;;;5018190;28;20034;-69
2023/01/18 03:15:29;;;;;;;4.47;3.17;;;;;;;;;;5002238;28;20034;-69
2023/01/18 03:18:00;;;;;;;5.43;3.17;;;;;;;;;;5002740;28;20169;-69
2023/01/18 03:20:29;;;;;;;4.88;3.20;;;;;;;;;;5001651;28;20502;-69
2023/01/18 03:25:46;;;;;;;5.50;2.88;;;;;;;;;;5024983;28;20059;-69
2023/01/18 03:33:52;;;;;;;4.88;2.63;;;;;;;;;;5059317;28;20031;-70
2023/01/18 03:36:25;;;;;;;5.07;2.63;;;;;;;;;;5061431;28;20023;-69
2023/01/18 03:38:59;;;;;;;4.90;2.40;;;;;;;;;;5052311;28;20100;-70
2023/01/18 03:41:26;;;;;;;7.57;3.80;;;;;;;;;;5065076;28;20037;-70
2023/01/18 03:43:53;;;;;;;3.30;2.22;;;;;;;;;;5055298;28;20055;-70
2023/01/18 03:46:20;;;;;;;4.65;2.20;;;;;;;;;;5061135;28;20527;-70
2023/01/18 03:48:45;;;;;;;6.82;2.60;;;;;;;;;;5058641;28;20031;-70
2023/01/18 03:51:14;;;;;;;8.30;3.03;;;;;;;;;;5042609;28;20033;-70
2023/01/18 03:53:49;;;;;;;5.70;2.75;;;;;;;;;;5057624;28;20040;-70
2023/01/18 03:56:17;;;;;;;6.55;3.17;;;;;;;;;;5051620;28;20108;-70
2023/01/18 03:58:43;;;;;;;5.25;3.00;;;;;;;;;;5057241;28;20044;-70
2023/01/18 04:01:08;;;;;;;7.38;2.60;;;;;;;;;;5059607;28;20057;-70
2023/01/18 04:03:34;;;;;;;6.22;2.72;;;;;;;;;;5055433;28;20103;-70
2023/01/18 04:06:00;;;;;;;4.87;3.00;;;;;;;;;;5050596;28;20016;-70
2023/01/18 04:08:26;;;;;;;5.07;2.50;;;;;;;;;;5053578;28;20023;-70
2023/01/18 04:10:51;;;;;;;4.93;2.30;;;;;;;;;;5054537;28;20421;-70
2023/01/18 04:13:16;;;;;;;6.00;2.23;;;;;;;;;;5056393;28;20297;-71
2023/01/18 04:15:41;;;;;;;5.17;2.40;;;;;;;;;;5054803;28;20025;-71
2023/01/18 04:18:06;;;;;;;3.73;2.10;;;;;;;;;;5059147;28;20519;-70
2023/01/18 04:20:32;;;;;;;5.77;2.20;;;;;;;;;;5062674;28;20491;-70
2023/01/18 04:22:57;;;;;;;4.13;2.40;;;;;;;;;;5042875;28;20039;-70
2023/01/18 04:25:22;;;;;;;4.47;2.00;;;;;;;;;;5065297;28;20025;-70
2023/01/18 04:27:47;;;;;;;3.08;2.20;;;;;;;;;;5066923;28;20074;-71
2023/01/18 04:30:13;;;;;;;4.60;2.50;;;;;;;;;;5052763;28;20028;-71
2023/01/18 04:32:38;;;;;;;7.03;2.43;;;;;;;;;;5066321;28;20270;-70
2023/01/18 04:35:04;;;;;;;5.22;2.33;;;;;;;;;;5059760;28;20269;-71
2023/01/18 04:37:32;;;;;;;4.07;2.33;;;;;;;;;;5047471;28;20085;-71
2023/01/18 04:39:58;;;;;;;5.90;2.60;;;;;;;;;;5048709;28;20398;-71
2023/01/18 04:42:24;;;;;;;5.07;2.20;;;;;;;;;;5063251;28;20028;-71
2023/01/18 04:44:49;;;;;;;4.07;2.40;;;;;;;;;;5058810;28;20300;-71
2023/01/18 04:47:15;;;;;;;4.33;1.97;;;;;;;;;;5063781;28;20482;-69
2023/01/18 04:49:40;;;;;;;2.97;2.00;;;;;;;;;;5063747;28;20074;-71
2023/01/18 04:52:06;;;;;;;5.83;2.03;;;;;;;;;;5046674;28;20037;-71
2023/01/18 04:54:31;;;;;;;1.95;1.25;;;;;;;;;;5055155;28;20040;-71
2023/01/18 04:56:56;;;;;;;5.15;1.90;;;;;;;;;;5062156;28;20029;-70
2023/01/18 04:59:22;;;;;;;7.20;2.45;;;;;;;;;;5062246;28;20463;-70
2023/01/18 05:01:47;;;;;;;7.47;2.20;;;;;;;;;;5057583;28;20033;-70
2023/01/18 05:04:12;;;;;;;2.43;1.40;;;;;;;;;;5059612;28;20029;-68
2023/01/18 05:06:37;;;;;;;2.83;1.13;;;;;;;;;;5048696;28;20035;-69
2023/01/18 05:09:02;;;;;;;3.57;1.10;;;;;;;;;;5060723;28;20024;-69
2023/01/18 05:11:28;;;;;;;3.40;1.38;;;;;;;;;;5065078;28;20456;-69
2023/01/18 05:13:53;;;;;;;4.20;1.40;;;;;;;;;;5054325;28;20111;-69
2023/01/18 05:16:20;;;;;;;3.83;2.40;;;;;;;;;;5062380;28;20486;-70
2023/01/18 05:18:45;;;;;;;3.88;1.67;;;;;;;;;;5040358;28;20077;-70
2023/01/18 05:21:11;;;;;;;4.97;2.33;;;;;;;;;;5034455;28;20053;-70
2023/01/18 05:23:38;;;;;;;4.05;1.70;;;;;;;;;;5039806;28;20270;-70
2023/01/18 05:26:12;;;;;;;4.10;2.38;;;;;;;;;;5038833;28;20033;-70
2023/01/18 05:28:37;;;;;;;3.72;1.60;;;;;;;;;;5036487;28;20109;-70
2023/01/18 05:31:02;;;;;;;4.43;1.67;;;;;;;;;;5038526;28;20108;-70
2023/01/18 05:33:28;;;;;;;4.60;2.57;;;;;;;;;;5042407;28;20033;-69
2023/01/18 05:35:54;;;;;;;11.35;5.45;;;;;;;;;;5036643;28;20028;-69
2023/01/18 05:38:19;;;;;;;4.22;2.60;;;;;;;;;;5034193;28;20032;-69
2023/01/18 05:40:46;;;;;;;9.30;3.33;;;;;;;;;;5040650;28;20108;-69
2023/01/18 05:43:12;;;;;;;4.63;2.95;;;;;;;;;;5032021;28;20040;-66
2023/01/18 05:45:37;;;;;;;3.53;2.28;;;;;;;;;;5058853;28;20037;-66
2023/01/18 05:48:03;;;;;;;4.65;2.42;;;;;;;;;;5035205;28;20022;-66
2023/01/18 05:50:28;;;;;;;3.08;1.92;;;;;;;;;;5044749;28;20115;-66
2023/01/18 05:52:56;;;;;;;3.90;2.20;;;;;;;;;;5036158;28;20025;-68
2023/01/18 05:55:21;;;;;;;3.67;1.98;;;;;;;;;;5041507;28;20094;-66
2023/01/18 05:57:46;;;;;;;3.10;2.00;;;;;;;;;;5036610;28;20426;-65
2023/01/18 06:00:11;;;;;;;2.33;1.77;;;;;;;;;;5044068;28;20041;-66
2023/01/18 06:02:37;;;;;;;4.78;1.85;;;;;;;;;;5050291;28;20328;-67
2023/01/18 06:05:02;;;;;;;3.27;1.93;;;;;;;;;;5038484;28;20036;-67
2023/01/18 06:07:27;;;;;;;4.00;2.20;;;;;;;;;;5033822;28;20033;-67
2023/01/18 06:09:52;;;;;;;3.47;2.20;;;;;;;;;;5037373;28;20274;-66
2023/01/18 06:12:17;;;;;;;3.83;2.17;;;;;;;;;;5035999;28;20039;-68
2023/01/18 06:14:43;;;;;;;4.30;2.10;;;;;;;;;;5034777;28;20108;-68
2023/01/18 06:17:08;;;;;;;4.10;2.30;;;;;;;;;;5035685;28;20116;-66
2023/01/18 06:19:34;;;;;;;4.47;2.50;;;;;;;;;;5058790;28;20293;-66
2023/01/18 06:21:59;;;;;;;6.20;2.35;;;;;;;;;;5052963;28;20327;-66
2023/01/18 06:24:25;;;;;;;6.00;2.37;;;;;;;;;;5060320;28;20416;-67
2023/01/18 06:26:50;;;;;;;5.63;2.23;;;;;;;;;;5063688;28;20048;-66
2023/01/18 06:29:15;;;;;;;3.63;2.43;;;;;;;;;;5058705;28;20027;-66
2023/01/18 06:31:40;;;;;;;3.47;2.20;;;;;;;;;;5061601;28;20016;-67
2023/01/18 06:34:08;;;;;;;4.70;2.47;;;;;;;;;;5041672;28;20059;-66
2023/01/18 06:36:37;;;;;;;7.38;2.33;;;;;;;;;;5054114;28;20032;-66
2023/01/18 06:39:02;;;;;;;;;;;;;;;;;;5063176;28;20115;-66
2023/01/18 06:41:28;;;;;;;3.78;1.85;;;;;;;;;;5058099;28;20050;-67
2023/01/18 06:43:53;;;;;;;3.97;2.10;;;;;;;;;;5061143;28;20032;-69
2023/01/18 06:46:18;;;;;;;4.68;2.00;;;;;;;;;;5062364;28;20074;-68
2023/01/18 06:48:44;;;;;;;4.13;2.00;;;;;;;;;;5059235;28;20058;-68
2023/01/18 06:51:11;;;;;;;2.83;1.83;;;;;;;;;;5045170;28;20115;-70
2023/01/18 06:53:36;;;;;;;3.90;1.80;;;;;;;;;;5061297;28;20067;-66
2023/01/18 06:56:01;;;;;;;3.22;1.98;;;;;;;;;;5063280;28;20049;-68
2023/01/18 06:58:27;;;;;;;3.40;2.05;;;;;;;;;;5042323;28;20119;-66
2023/01/18 07:00:53;;;;;;;4.55;1.85;;;;;;;;;;5062239;28;20081;-66
2023/01/18 07:03:18;;;;;;;3.90;2.17;;;;;;;;;;5062068;28;20533;-65
2023/01/18 07:05:45;;;;;;;3.28;2.13;;;;;;;;;;5056205;28;20027;-66
2023/01/18 07:08:10;;;;;;;3.92;1.90;;;;;;;;;;5066336;28;20033;-67
2023/01/18 07:10:36;;;;;;;4.15;2.22;;;;;;;;;;5064073;28;20535;-65
2023/01/18 07:13:01;;;;;;;4.55;2.00;;;;;;;10.65;nan;98141.78;5063781;28;20111;-66
2023/01/18 07:15:26;;;;;;;4.25;2.17;;;;;;;;;;5060009;28;20024;-65
2023/01/18 07:17:51;;;;;;;4.20;2.63;;;;;;;;;;5038708;28;20511;-67
2023/01/18 07:20:17;;;;;;;4.27;2.33;;;;;;;;;;5042882;28;20056;-66
2023/01/18 07:22:42;;;;;;;6.45;3.35;;;;;;;;;;5044414;28;20028;-67
2023/01/18 07:25:12;;;;;;;8.33;4.30;;;;;;;;;;5037953;28;20394;-67
2023/01/18 07:27:37;;;;;;;4.03;2.50;;;;;;;;;;5051076;28;20086;-67
2023/01/18 07:30:02;;;;;;;5.03;2.70;;;;;;;;;;5037954;28;20065;-67
2023/01/18 07:32:27;;;;;;;4.32;2.42;;;;;;;;;;5040328;28;20033;-67
2023/01/18 07:34:52;;;;;;;2.70;2.23;;;;;;;;;;5037345;28;20037;-66
2023/01/18 07:37:18;;;;;;;2.90;1.90;;;;;;;;;;5046436;28;20114;-67
2023/01/18 07:39:43;;;;;;;5.97;1.87;;;;;;;;;;5034712;28;20052;-67
2023/01/18 07:42:08;;;;;;;3.23;2.07;;;;;;;;;;5038538;28;20379;-67
2023/01/18 07:44:33;;;;;;;6.28;2.63;;;;;;;;;;5044618;28;20395;-67
2023/01/18 07:46:59;;;;;;;4.90;2.40;;;;;;;;;;5046050;28;20471;-67
2023/01/18 07:49:24;;;;;;;3.30;1.87;;;;;;;;;;5043248;28;20483;-67
2023/01/18 07:51:49;;;;;;;6.60;2.03;;;;;;;;;;5037762;28;20405;-67
2023/01/18 07:54:16;;;;;;;6.13;2.67;;;;;;;;;;5032611;28;20325;-67
2023/01/18 07:56:41;;;;;;;2.90;1.67;;;;;;;;;;5038794;28;20278;-67
2023/01/18 07:59:06;;;;;;;3.67;1.77;;;;;;;;;;5040217;28;20029;-67
2023/01/18 08:01:31;;;;;;;2.00;1.30;;;;;;;;;;5040472;28;20029;-66
2023/01/18 08:03:57;;;;;;;2.77;1.30;;;;;;;;;;5047514;28;20764;-67
2023/01/18 08:06:26;;;;;;;2.50;1.30;;;;;;;;;;5049973;28;20044;-67
2023/01/18 08:08:53;;;;;;;2.63;1.40;;;;;;;;;;5039416;28;20021;-67
2023/01/18 08:11:19;;;;;;;3.10;1.10;;;;;;;;;;5042967;28;20041;-66
2023/01/18 08:13:44;;;;;;;2.85;1.20;;;;;;;12.01;nan;98397.13;5044331;28;20124;-67
2023/01/18 08:16:10;;;;;;;2.70;1.10;;;;;;;;;;5048894;28;20039;-67
2023/01/18 08:18:35;;;;;;;1.98;0.82;;;;;;;;;;5056507;28;20073;-67
2023/01/18 08:21:00;;;;;;;2.50;1.70;;;;;;;;;;5055962;28;20054;-67
2023/01/18 08:23:26;;;;;;;3.80;1.17;;;;;;;;;;5058483;28;20032;-66
2023/01/18 08:25:51;;;;;;;1.60;1.10;;;;;;;;;;5056034;28;20270;-66
2023/01/18 08:28:17;;;;;;;1.93;0.80;;;;;;;;;;5063890;28;20264;-67
2023/01/18 08:30:44;;;;;;;3.15;0.90;;;;;;;;;;5063530;28;20758;-67
2023/01/18 08:33:09;;;;;;;2.58;1.30;;;;;;;;;;5071038;28;20032;-67
2023/01/18 08:35:39;;;;;;;5.43;1.08;;;;;;;;;;5058916;28;20534;-66
2023/01/18 08:38:05;;;;;;;1.25;0.93;;;;;;;;;;5060513;28;20036;-67
2023/01/18 08:40:30;;;;;;;4.07;1.48;;;;;;;;;;5044551;28;20048;-66
2023/01/18 08:42:57;;;;;;;3.92;1.20;;;;;;;;;;5067044;28;20485;-66
2023/01/18 08:45:22;;;;;;;3.58;1.73;;;;;;;;;;5065185;28;20516;-67
2023/01/18 08:47:47;;;;;;;3.10;1.70;;;;;;;;;;5060499;28;20032;-67
2023/01/18 08:50:12;;;;;;;3.87;2.17;;;;;;;;;;5049945;28;20667;-66
2023/01/18 08:52:38;;;;;;;3.60;1.67;;;;;;;;;;5064085;28;20284;-66
2023/01/18 08:55:03;;;;;;;3.47;1.80;;;;;;;;;;5063550;28;20131;-66
2023/01/18 08:57:29;;;;;;;8.20;3.03;;;;;;;;;;5060989;28;20109;-65
2023/01/18 08:59:55;;;;;;;4.28;2.20;;;;;;;;;;5064040;28;20351;-66
2023/01/18 09:02:21;;;;;;;6.45;2.13;;;;;;;;;;5060690;28;20039;-65
2023/01/18 09:04:47;;;;;;;5.07;2.90;;;;;;;;;;5058829;28;20571;-66
2023/01/18 09:07:13;;;;;;;3.42;1.50;;;;;;;;;;5063768;28;20035;-66
2023/01/18 09:09:38;;;;;;;2.38;1.10;;;;;;;;;;5054919;28;20088;-65
2023/01/18 09:12:03;;;;;;;3.50;2.30;;;;;;;;;;5060564;28;20032;-65
2023/01/18 09:14:28;;;;;;;4.85;2.85;;;;;;;;;;5056509;28;20037;-66
2023/01/18 09:16:54;;;;;;;3.23;2.37;;;;;;;;;;5046982;28;20025;-66
2023/01/18 09:19:19;;;;;;;1.90;1.40;;;;;;;;;;5060707;28;20028;-66
2023/01/18 09:21:45;;;;;;;2.20;1.40;;;;;;;;;;5060664;28;20281;-66
2023/01/18 09:24:11;;;;;;;3.22;1.77;;;;;;;;;;5060156;28;20031;-66
2023/01/18 09:26:37;;;;;;;1.65;1.30;;;;;;;;;;5056527;28;20025;-66
2023/01/18 09:29:02;;;;;;;1.35;0.90;;;;;;;;;;5046676;28;20087;-66
2023/01/18 09:31:28;;;;;;;2.00;0.80;;;;;;;;;;5056699;28;20481;-66
2023/01/18 09:33:56;;;;;;;2.10;0.82;;;;;;;;;;5061518;28;20032;-66
2023/01/18 09:36:25;;;;;;;2.80;0.70;;;;;;;;;;5062045;28;20456;-67
2023/01/18 09:38:50;;;;;;;1.10;0.90;;;;;;;;;;5055254;28;20052;-67
2023/01/18 09:41:23;;;;;;;4.50;0.90;;;;;;;;;;5048967;28;20071;-67
2023/01/18 09:43:51;;;;;;;1.38;0.80;;;;;;;;;;5062575;28;20068;-66
2023/01/18 09:46:18;;;;;;;1.10;0.63;;;;;;;;;;5057082;28;20461;-66
2023/01/18 09:48:43;;;;;;;3.65;0.98;;;;;;;;;;5056709;28;20067;-65
2023/01/18 09:51:14;;;;;;;2.58;0.90;;;;;;;;;;5062104;28;20436;-63
2023/01/18 09:53:46;;;;;;;3.10;0.85;;;;;;;;;;5061402;28;20047;-65
2023/01/18 09:56:19;;;;;;;1.88;0.88;;;;;;;;;;5065915;28;20028;-65
2023/01/18 09:58:47;;;;;;;1.63;0.70;;;;;;;;;;5064233;28;20100;-65
2023/01/18 10:01:15;;;;;;;1.13;0.60;;;;;;;;;;5060863;28;20450;-66
2023/01/18 10:03:43;;;;;;;1.60;0.73;;;;;;;;;;5059474;28;20029;-65
2023/01/18 10:06:20;;;;;;;2.75;0.70;;;;;;;;;;5052847;28;20033;-65
2023/01/18 10:08:47;;;;;;;2.58;0.82;;;;;;;;;;5060620;28;20025;-67
2023/01/18 10:11:17;;;;;;;1.70;0.65;;;;;;;;;;5054178;28;20049;-66
2023/01/18 10:13:46;;;;;;;1.17;0.90;;;;;;;;;;5047786;28;20063;-67
2023/01/18 10:16:13;;;;;;;1.50;0.93;;;;;;;;;;5053290;28;20379;-67
2023/01/18 10:18:44;;;;;;;1.27;0.82;;;;;;;;;;5058308;28;20040;-67
2023/01/18 10:21:13;;;;;;;1.80;0.77;;;;;;;;;;5055730;28;20074;-67
2023/01/18 10:23:43;;;;;;;1.63;0.80;;;;;;;;;;5053705;28;20060;-67
2023/01/18 10:26:15;;;;;;;2.35;1.30;;;;;;;;;;5039746;28;20448;-66
2023/01/18 10:28:40;;;;;;;2.67;0.57;;;;;;;;;;5059441;28;20028;-67
2023/01/18 10:31:24;;;;;;;1.77;0.73;;;;;;;;;;5059229;28;20028;-67
2023/01/18 10:33:54;;;;;;;1.88;0.85;;;;;;;;;;5056086;28;20035;-66
2023/01/18 10:36:40;;;;;;;1.35;0.80;;;;;;;;;;5024524;28;20102;-65
2023/01/18 10:39:13;;;;;;;1.30;0.75;;;;;;;;;;5037322;28;20040;-67
2023/01/18 10:41:40;;;;;;;0.95;0.60;;;;;;;;;;5038073;28;20067;-67
2023/01/18 10:44:05;;;;;;;1.17;0.90;;;;;;;;;;5028323;28;20033;-67
2023/01/18 10:46:30;;;;;;;1.00;0.70;;;;;;;;;;5020966;28;20036;-66
2023/01/18 10:48:56;;;;;;;1.75;0.90;;;;;;;;;;5014808;28;20029;-67
2023/01/18 10:51:35;;;;;;;1.00;0.80;;;;;;;;;;5038959;28;20021;-67
2023/01/18 10:54:19;;;;;;;1.08;0.52;;;;;;;;;;5028026;28;20052;-67
2023/01/18 10:56:44;;;;;;;1.45;0.60;;;;;;;;;;5040256;28;20044;-67
2023/01/18 10:59:23;;;;;;;1.93;0.60;;;;;;;;;;5039869;28;20104;-67
2023/01/18 11:01:51;;;;;;;;;;;;;;;;;;5038954;28;20036;-67
2023/01/18 11:04:21;;;;;;;1.77;0.63;;;;;;;;;;5023459;28;19921;-68
2023/01/18 11:06:48;;;;;;;2.40;1.00;;;;;;;;;;5037066;28;20112;-68
2023/01/18 11:09:32;;;;;;;1.42;0.90;;;;;;;;;;5035915;28;20032;-68
2023/01/18 11:15:12;;;;;;;3.38;1.40;;;;;;;;;;5040620;28;20441;-68
2023/01/18 11:17:37;;;;;;;3.67;2.35;;;;;;;;;;5030214;28;20037;-68
2023/01/18 11:20:06;;;;;;;2.80;1.48;;;;;;;;;;5038920;28;20059;-68
2023/01/18 11:22:32;;;;;;;2.03;1.02;;;;;;;;;;5036537;28;20071;-67
2023/01/18 11:24:58;;;;;;;1.95;1.40;;;;;;;;;;5035991;28;20025;-68
2023/01/18 11:27:23;;;;;;;2.17;1.47;;;;;;;;;;5020166;28;20063;-67
2023/01/18 11:29:49;;;;;;;3.15;2.10;;;;;;;;;;5026723;28;20724;-67
2023/01/18 11:32:25;;;;;;;2.88;1.60;;;;;;;;;;5038875;28;20067;-67
2023/01/18 11:34:52;;;;;;;2.08;1.40;;;;;;;;;;5041324;28;20108;-67
2023/01/18 11:37:23;;;;;;;4.20;2.50;;;;;;;;;;5039501;28;20070;-66
2023/01/18 11:39:48;;;;;;;1.75;1.08;;;;;;;;;;5038392;28;20186;-66
2023/01/18 11:42:13;;;;;;;2.70;1.00;;;;;;;;;;5042865;28;20388;-67
2023/01/18 11:44:43;;;;;;;3.53;1.60;;;;;;;;;;5050620;28;20027;-66
2023/01/18 11:47:11;;;;;;;2.55;1.00;;;;;;;;;;5042536;28;20036;-66
2023/01/18 11:49:55;;;;;;;4.78;2.00;;;;;;;;;;5040681;28;20040;-67
2023/01/18 11:52:21;;;;;;;4.03;1.70;;;;;;;;;;5037153;28;20027;-68
2023/01/18 11:54:56;;;;;;;7.07;3.60;;;;;;;;;;5037436;28;20116;-68
2023/01/18 11:57:22;;;;;;;5.22;2.78;;;;;;;;;;5038377;28;20281;-68
2023/01/18 11:59:47;;;;;;;3.13;1.83;;;;;;;;;;5035132;28;20387;-68
2023/01/18 12:02:18;;;;;;;7.47;2.90;;;;;;;;;;5041062;28;20278;-68
2023/01/18 12:04:44;;;;;;;4.35;1.60;;;;;;;;;;5041718;28;20554;-68
2023/01/18 12:07:28;;;;;;;3.38;1.85;;;;;;;;;;5041929;28;20087;-68
2023/01/18 12:09:54;;;;;;;3.72;2.15;;;;;;;;;;5023031;28;20428;-68
2023/01/18 12:12:38;;;;;;;2.83;1.55;;;;;;;;;;5039082;28;20030;-68
2023/01/18 12:15:09;;;;;;;6.30;3.88;;;;;;;;;;5030913;28;20478;-68
2023/01/18 12:17:41;;;;;;;11.60;6.10;;;;;;;;;;5019114;28;20561;-68
2023/01/18 12:20:07;;;;;;;6.88;4.03;;;;;;;;;;5041061;28;20033;-69
2023/01/18 12:22:52;;;;;;;2.75;1.50;;;;;;;;;;5036490;28;20028;-69
2023/01/18 12:25:18;;;;;;;2.17;1.35;;;;;;;;;;5013904;28;20037;-69
2023/01/18 12:28:03;;;;;;;5.23;2.90;;;;;;;;;;5039385;28;20031;-69
2023/01/18 12:30:47;;;;;;;21.55;15.50;;;;;;;;;;5027889;28;20481;-69
2023/01/18 12:33:18;;;;;;;6.68;4.35;;;;;;;;;;5036190;28;20548;-69
2023/01/18 12:36:00;;;;;;;4.40;3.03;;;;;;;;;;5037964;28;20079;-68
2023/01/18 12:38:30;;;;;;;3.90;2.00;;;;;;;;;;5032891;28;20770;-69
2023/01/18 12:41:04;;;;;;;3.42;1.65;;;;;;;;;;5021178;28;20029;-68
2023/01/18 12:45:40;;;;;;;6.68;3.75;;;;;;;;;;5165105;27;20139;-69
2023/01/18 12:48:23;;;;;;;11.68;4.10;;;;;;;;;;5147595;27;20027;-69
2023/01/18 12:50:49;;;;;;;3.20;1.80;;;;;;;;;;5125514;27;20015;-69
2023/01/18 12:53:27;;;;;;;3.33;1.27;;;;;;;;;;5127929;27;20493;-68
2023/01/18 12:55:53;;;;;;;3.17;1.40;;;;;;;;;;5148668;27;20156;-69
2023/01/18 12:58:23;;;;;;;3.90;1.00;;;;;;;;;;5137439;27;20369;-69
2023/01/18 13:01:01;;;;;;;1.52;0.75;;;;;;;;;;5145725;27;20049;-69
2023/01/18 13:03:33;;;;;;;3.47;0.80;;;;;;;;;;5149562;27;20379;-69
2023/01/18 13:05:59;;;;;;;4.70;1.20;;;;;;;;;;5148001;27;20027;-69
2023/01/18 13:08:25;;;;;;;3.58;1.98;;;;;;;;;;5152238;27;20030;-69
2023/01/18 13:10:52;;;;;;;4.10;2.20;;;;;;;;;;5149422;27;20023;-69
2023/01/18 13:13:21;;;;;;;2.75;1.48;;;;;;;;;;5137406;27;20020;-71
2023/01/18 13:15:49;;;;;;;1.58;1.15;;;;;;;;;;5131044;27;20019;-69
2023/01/18 13:18:20;;;;;;;2.88;1.50;;;;;;;;;;5129141;27;20069;-69
2023/01/18 13:21:08;;;;;;;5.18;1.65;;;;;;;;;;5150642;27;20391;-68
2023/01/18 13:23:33;;;;;;;2.83;1.23;;;;;;;;;;5154751;27;20525;-69
2023/01/18 13:26:17;;;;;;;2.37;0.90;;;;;;;;;;5138791;27;20118;-69
2023/01/18 13:28:44;;;;;;;2.63;1.00;;;;;;;;;;5152301;27;20015;-69
2023/01/18 13:31:09;;;;;;;4.72;1.30;;;;;;;;;;5150674;27;20086;-69
2023/01/18 13:33:36;;;;;;;5.32;1.10;;;;;;;;;;5150368;27;20098;-68
2023/01/18 13:36:08;;;;;;;1.80;1.02;;;;;;;;;;5149947;27;20532;-68
2023/01/18 13:38:38;;;;;;;2.58;1.05;;;;;;;;;;5121972;27;20033;-68
2023/01/18 13:41:12;;;;;;;1.90;1.00;;;;;;;;;;5152158;27;20105;-69
2023/01/18 13:43:40;;;;;;;1.70;0.70;;;;;;;;;;5141479;27;20039;-68
2023/01/18 13:46:05;;;;;;;1.00;0.70;;;;;;;;;;5146383;27;20031;-70
2023/01/18 13:48:51;;;;;;;0.97;0.60;;;;;;;;;;5140918;27;20019;-70
2023/01/18 13:51:35;;;;;;;1.80;0.90;;;;;;;;;;5122322;27;20279;-70
2023/01/18 13:54:00;;;;;;;2.65;0.80;;;;;;;;;;5141433;27;20102;-70
2023/01/18 13:56:29;;;;;;;1.97;0.90;;;;;;;;;;5121045;27;20110;-69
2023/01/18 13:58:59;;;;;;;2.08;1.00;;;;;;;;;;5140303;27;20268;-70
2023/01/18 14:01:26;;;;;;;3.10;1.52;;;;;;;;;;5135971;27;20030;-70
2023/01/18 14:03:51;;;;;;;3.00;1.90;;;;;;;;;;5137018;27;20022;-68
2023/01/18 14:06:23;;;;;;;2.88;1.77;;;;;;;;;;5142350;27;20027;-68
2023/01/18 14:08:50;;;;;;;2.80;1.80;;;;;;;;;;5142451;27;20042;-68
2023/01/18 14:11:26;;;;;;;2.50;1.33;;;;;;;;;;5137188;27;20021;-68
2023/01/18 14:13:51;;;;;;;2.35;1.48;;;;;;;;;;5133166;27;20042;-68
2023/01/18 14:16:18;;;;;;;2.55;1.67;;;;;;;;;;5139156;27;20051;-68
2023/01/18 14:18:59;;;;;;;2.60;1.42;;;;;;;;;;5135974;27;20077;-69
2023/01/18 14:21:24;;;;;;;5.88;2.28;;;;;;;;;;5109882;27;20062;-69
2023/01/18 14:23:53;;;;;;;3.28;2.08;;;;;;;;;;5132172;27;20058;-68
2023/01/18 14:26:19;;;;;;;4.43;2.28;;;;;;;;;;5104936;27;20023;-68
2023/01/18 14:28:59;;;;;;;4.68;2.42;;;;;;;;;;5129594;27;20024;-68
2023/01/18 14:31:36;;;;;;;3.15;1.73;;;;;;;;;;5122737;27;20055;-69
2023/01/18 14:34:20;;;;;;;3.03;1.50;;;;;;;;;;5125090;27;20043;-69
2023/01/18 14:36:46;;;;;;;4.07;2.08;;;;;;;;;;5141739;27;20061;-69
2023/01/18 14:39:13;;;;;;;3.33;1.90;;;;;;;;;;5139769;27;20047;-69
2023/01/18 14:41:50;;;;;;;4.30;2.28;;;;;;;;;;5135509;27;20075;-68
2023/01/18 14:44:18;;;;;;;5.15;2.58;;;;;;;;;;5138161;27;20087;-68
2023/01/18 14:46:48;;;;;;;4.68;2.30;;;;;;;;;;5138557;27;20566;-70
2023/01/18 14:49:15;;;;;;;2.63;1.55;;;;;;;;;;5130175;27;20050;-69
2023/01/18 14:51:45;;;;;;;3.88;1.52;;;;;;;;;;5134861;27;20046;-69
2023/01/18 14:54:11;;;;;;;2.63;1.25;;;;;;;;;;5136276;27;20046;-69
2023/01/18 14:56:40;;;;;;;2.25;1.40;;;;;;;;;;5126173;27;20128;-69
2023/01/18 14:59:20;;;;;;;4.18;1.60;;;;;;;;;;5135161;27;20023;-68
2023/01/18 15:01:50;;;;;;;3.60;1.85;;;;;;;;;;5115543;27;20603;-69
2023/01/18 15:04:23;;;;;;;5.40;2.90;;;;;;;;;;5126746;27;20388;-69
2023/01/18 15:06:51;;;;;;;5.03;2.83;;;;;;;;;;5123504;27;20031;-69
2023/01/18 15:09:21;;;;;;;4.97;2.95;;;;;;;;;;5114214;27;20031;-69
2023/01/18 15:11:47;;;;;;;5.18;2.70;;;;;;;;;;5125670;27;20034;-70
2023/01/18 15:14:20;;;;;;;6.10;2.53;;;;;;;;;;5126539;27;20353;-67
2023/01/18 15:16:47;;;;;;;5.85;2.40;;;;;;;;;;5134117;27;20027;-70
2023/01/18 15:19:16;;;;;;;2.60;1.85;;;;;;;;;;5139194;27;20026;-70
2023/01/18 15:21:41;;;;;;;3.40;1.90;;;;;;;;;;5141761;27;20018;-70
2023/01/18 15:24:08;;;;;;;3.30;1.73;;;;;;;;;;5135832;27;20023;-70
2023/01/18 15:26:45;;;;;;;8.18;3.13;;;;;;;;;;5135577;27;20031;-70